Portada
METAR-TAF:

METAR-TAF

Aeroports :

Luni

Sarzana, Itàlia

latitud: 44-05N, longitud: 009-59E, altitud: 9 m

Observació

L'informe es va fer fa 24 hores i 23 minuts, a les 09:55 UTC
Vent 3 kt del Oest/Nord-Oest
Temperatura 23°C
Humitat 69%
Pressió 1021 hPa
Visibilitat 10 km o més
sense núvols per sota de 1500 mi sense presència de cumulonimbus.

METAR: LIQW 290955Z 30003KT CAVOK 23/17 Q1021 RMK SKC VIS MIN 9999 WIND THR14 /////KT BLU

Hora: 12:18 (10:18 UTC)

Pronòstic

L'informe es va fer fa 26 hores i 18 minuts, a les 08:00 UTC
Pronòstic vàlid del 29 a les 09 UTC al 29 a les 18 UTC
Vent 10 kt del Nord-Oest
Visibilitat 10 km o més
sense núvols per sota de 1500 mi sense presència de cumulonimbus.

TAF: LIQW 290800Z 2909/2918 32010KT CAVOK

Observacions i pronòstics meteorològics de més de 4000 aeroports (METAR i TAF).

Les estacions disponibles són els punts grocs i vermells al mapa.

Posi el ratolí al punt desitjat per veure el nom de l'estació.

Feu clic per veure les observacions i els pronòstics meteorològics.

Per canviar el mapa: feu clic els botons verds amb una creu de color negre per apropar; al botó verd amb un guió per allunyar la imatge; o en les fletxes verdes per a mapes adjacents.


METAR-TAF: